sensor_id;sensor_type;location;lat;lon;timestamp;pressure;altitude;pressure_sealevel;temperature;humidity
10958;BME280;5531;42.570;23.676;2023-06-22T00:00:42;92499.81;;;19.35;96.66
10958;BME280;5531;42.570;23.676;2023-06-22T00:03:11;92496.47;;;19.40;96.66
10958;BME280;5531;42.570;23.676;2023-06-22T00:05:43;92498.16;;;19.46;97.00
10958;BME280;5531;42.570;23.676;2023-06-22T00:08:12;92502.41;;;19.47;96.43
10958;BME280;5531;42.570;23.676;2023-06-22T00:10:41;92500.81;;;19.46;96.96
10958;BME280;5531;42.570;23.676;2023-06-22T00:13:11;92504.53;;;19.45;96.18
10958;BME280;5531;42.570;23.676;2023-06-22T00:15:41;92505.06;;;19.47;94.31
10958;BME280;5531;42.570;23.676;2023-06-22T00:18:11;92511.94;;;19.43;95.43
10958;BME280;5531;42.570;23.676;2023-06-22T00:20:42;92518.84;;;19.44;95.20
10958;BME280;5531;42.570;23.676;2023-06-22T00:23:12;92510.06;;;19.44;94.82
10958;BME280;5531;42.570;23.676;2023-06-22T00:25:43;92499.22;;;19.45;96.14
10958;BME280;5531;42.570;23.676;2023-06-22T00:28:12;92510.88;;;19.44;95.20
10958;BME280;5531;42.570;23.676;2023-06-22T00:30:41;92511.03;;;19.37;95.18
10958;BME280;5531;42.570;23.676;2023-06-22T00:33:11;92510.31;;;19.42;94.40
10958;BME280;5531;42.570;23.676;2023-06-22T00:35:42;92515.16;;;19.45;94.82
10958;BME280;5531;42.570;23.676;2023-06-22T00:38:12;92504.19;;;19.41;94.92
10958;BME280;5531;42.570;23.676;2023-06-22T00:40:41;92505.00;;;19.42;94.79
10958;BME280;5531;42.570;23.676;2023-06-22T00:43:13;92503.66;;;19.28;96.60
10958;BME280;5531;42.570;23.676;2023-06-22T00:45:42;92502.88;;;19.27;97.44
10958;BME280;5531;42.570;23.676;2023-06-22T00:48:12;92499.66;;;19.25;96.58
10958;BME280;5531;42.570;23.676;2023-06-22T00:50:44;92496.16;;;19.24;96.40
10958;BME280;5531;42.570;23.676;2023-06-22T00:53:16;92506.00;;;19.24;96.63
10958;BME280;5531;42.570;23.676;2023-06-22T00:55:45;92493.03;;;19.28;95.72
10958;BME280;5531;42.570;23.676;2023-06-22T00:58:17;92478.88;;;19.22;96.23
10958;BME280;5531;42.570;23.676;2023-06-22T01:00:47;92486.03;;;19.21;97.18
10958;BME280;5531;42.570;23.676;2023-06-22T01:03:17;92486.59;;;19.23;97.32
10958;BME280;5531;42.570;23.676;2023-06-22T01:05:50;92482.31;;;19.22;97.35
10958;BME280;5531;42.570;23.676;2023-06-22T01:08:27;92486.94;;;19.27;96.82
10958;BME280;5531;42.570;23.676;2023-06-22T01:11:04;92480.59;;;19.16;96.78
10958;BME280;5531;42.570;23.676;2023-06-22T01:13:37;92481.13;;;19.01;97.43
10958;BME280;5531;42.570;23.676;2023-06-22T01:16:13;92479.78;;;18.87;97.45
10958;BME280;5531;42.570;23.676;2023-06-22T01:18:45;92492.13;;;18.81;98.09
10958;BME280;5531;42.570;23.676;2023-06-22T01:21:20;92477.47;;;18.79;97.94
10958;BME280;5531;42.570;23.676;2023-06-22T01:24:00;92484.06;;;18.76;97.98
10958;BME280;5531;42.570;23.676;2023-06-22T01:26:37;92488.00;;;18.74;98.07
10958;BME280;5531;42.570;23.676;2023-06-22T01:29:11;92495.94;;;18.74;99.63
10958;BME280;5531;42.570;23.676;2023-06-22T01:31:42;92492.03;;;18.76;99.15
10958;BME280;5531;42.570;23.676;2023-06-22T01:34:14;92491.56;;;18.79;98.48
10958;BME280;5531;42.570;23.676;2023-06-22T01:36:44;92490.50;;;18.80;98.23
10958;BME280;5531;42.570;23.676;2023-06-22T01:39:15;92500.69;;;18.83;98.33
10958;BME280;5531;42.570;23.676;2023-06-22T01:41:44;92496.41;;;18.82;98.82
10958;BME280;5531;42.570;23.676;2023-06-22T01:44:17;92491.81;;;18.78;99.30
10958;BME280;5531;42.570;23.676;2023-06-22T01:46:48;92492.72;;;18.72;98.64
10958;BME280;5531;42.570;23.676;2023-06-22T01:49:18;92482.41;;;18.46;99.72
10958;BME280;5531;42.570;23.676;2023-06-22T01:51:47;92477.56;;;18.43;100.00
10958;BME280;5531;42.570;23.676;2023-06-22T01:54:16;92480.56;;;18.47;99.32
10958;BME280;5531;42.570;23.676;2023-06-22T01:56:45;92485.41;;;18.50;100.00
10958;BME280;5531;42.570;23.676;2023-06-22T01:59:22;92492.88;;;18.53;100.00
10958;BME280;5531;42.570;23.676;2023-06-22T02:01:59;92494.25;;;18.56;100.00
10958;BME280;5531;42.570;23.676;2023-06-22T02:04:34;92490.34;;;18.58;100.00
10958;BME280;5531;42.570;23.676;2023-06-22T02:07:09;92496.69;;;18.57;100.00
10958;BME280;5531;42.570;23.676;2023-06-22T02:09:44;92503.94;;;18.62;99.69
10958;BME280;5531;42.570;23.676;2023-06-22T02:12:17;92499.19;;;18.64;99.90
10958;BME280;5531;42.570;23.676;2023-06-22T02:14:50;92499.91;;;18.71;98.89
10958;BME280;5531;42.570;23.676;2023-06-22T02:17:20;92500.38;;;18.68;98.84
10958;BME280;5531;42.570;23.676;2023-06-22T02:19:49;92503.13;;;18.73;98.95
10958;BME280;5531;42.570;23.676;2023-06-22T02:22:18;92511.56;;;18.58;99.64
10958;BME280;5531;42.570;23.676;2023-06-22T02:24:47;92499.91;;;18.59;99.77
10958;BME280;5531;42.570;23.676;2023-06-22T02:27:16;92498.88;;;18.60;100.00
10958;BME280;5531;42.570;23.676;2023-06-22T02:29:45;92495.31;;;18.55;100.00
10958;BME280;5531;42.570;23.676;2023-06-22T02:32:17;92499.09;;;18.59;100.00
10958;BME280;5531;42.570;23.676;2023-06-22T02:34:46;92495.53;;;18.65;100.00
10958;BME280;5531;42.570;23.676;2023-06-22T02:37:15;92490.53;;;18.68;99.14
10958;BME280;5531;42.570;23.676;2023-06-22T02:39:44;92486.84;;;18.69;99.23
10958;BME280;5531;42.570;23.676;2023-06-22T02:42:13;92480.72;;;18.69;98.81
10958;BME280;5531;42.570;23.676;2023-06-22T02:44:46;92479.13;;;18.68;98.58
10958;BME280;5531;42.570;23.676;2023-06-22T02:47:18;92477.88;;;18.59;97.25
10958;BME280;5531;42.570;23.676;2023-06-22T02:49:47;92484.09;;;18.53;98.73
10958;BME280;5531;42.570;23.676;2023-06-22T02:52:15;92479.72;;;18.58;97.87
10958;BME280;5531;42.570;23.676;2023-06-22T02:54:44;92483.75;;;18.61;98.19
10958;BME280;5531;42.570;23.676;2023-06-22T02:57:13;92494.72;;;18.64;98.17
10958;BME280;5531;42.570;23.676;2023-06-22T02:59:42;92481.31;;;18.71;96.79
10958;BME280;5531;42.570;23.676;2023-06-22T03:02:11;92484.31;;;18.75;96.18
10958;BME280;5531;42.570;23.676;2023-06-22T03:04:44;92484.53;;;18.73;94.02
10958;BME280;5531;42.570;23.676;2023-06-22T03:07:14;92486.25;;;18.79;95.96
10958;BME280;5531;42.570;23.676;2023-06-22T03:09:43;92487.53;;;18.77;94.64
10958;BME280;5531;42.570;23.676;2023-06-22T03:12:12;92498.16;;;18.65;96.16
10958;BME280;5531;42.570;23.676;2023-06-22T03:14:41;92510.97;;;18.68;94.42
10958;BME280;5531;42.570;23.676;2023-06-22T03:17:10;92503.03;;;18.68;93.58
10958;BME280;5531;42.570;23.676;2023-06-22T03:19:39;92514.88;;;18.77;93.78
10958;BME280;5531;42.570;23.676;2023-06-22T03:22:11;92517.66;;;18.82;93.38
10958;BME280;5531;42.570;23.676;2023-06-22T03:24:40;92526.09;;;18.79;93.05
10958;BME280;5531;42.570;23.676;2023-06-22T03:27:09;92519.84;;;18.85;93.57
10958;BME280;5531;42.570;23.676;2023-06-22T03:29:38;92519.03;;;18.85;93.99
10958;BME280;5531;42.570;23.676;2023-06-22T03:32:07;92524.47;;;18.78;94.79
10958;BME280;5531;42.570;23.676;2023-06-22T03:34:36;92521.34;;;18.81;94.61
10958;BME280;5531;42.570;23.676;2023-06-22T03:37:06;92522.75;;;18.84;94.67
10958;BME280;5531;42.570;23.676;2023-06-22T03:39:37;92535.78;;;18.85;94.99
10958;BME280;5531;42.570;23.676;2023-06-22T03:42:06;92528.63;;;18.86;95.08
10958;BME280;5531;42.570;23.676;2023-06-22T03:44:36;92525.06;;;18.92;95.76
10958;BME280;5531;42.570;23.676;2023-06-22T03:47:06;92529.53;;;19.03;95.18
10958;BME280;5531;42.570;23.676;2023-06-22T03:49:35;92525.75;;;19.16;95.35
10958;BME280;5531;42.570;23.676;2023-06-22T03:52:05;92523.31;;;19.27;94.32
10958;BME280;5531;42.570;23.676;2023-06-22T03:54:37;92531.94;;;19.34;93.43
10958;BME280;5531;42.570;23.676;2023-06-22T03:57:06;92535.16;;;19.36;95.03
10958;BME280;5531;42.570;23.676;2023-06-22T03:59:36;92532.09;;;19.27;95.57
10958;BME280;5531;42.570;23.676;2023-06-22T04:02:06;92521.31;;;19.34;95.73
10958;BME280;5531;42.570;23.676;2023-06-22T04:04:35;92527.88;;;19.43;95.87
10958;BME280;5531;42.570;23.676;2023-06-22T04:07:05;92524.13;;;19.56;95.89
10958;BME280;5531;42.570;23.676;2023-06-22T04:09:37;92530.00;;;19.58;95.64
10958;BME280;5531;42.570;23.676;2023-06-22T04:12:07;92530.41;;;19.67;95.17
10958;BME280;5531;42.570;23.676;2023-06-22T04:14:36;92530.00;;;19.75;95.29
10958;BME280;5531;42.570;23.676;2023-06-22T04:17:05;92538.22;;;19.85;94.88
10958;BME280;5531;42.570;23.676;2023-06-22T04:19:35;92539.53;;;20.00;93.80
10958;BME280;5531;42.570;23.676;2023-06-22T04:22:04;92547.19;;;20.13;93.93
10958;BME280;5531;42.570;23.676;2023-06-22T04:24:33;92547.19;;;20.13;93.59
10958;BME280;5531;42.570;23.676;2023-06-22T04:27:05;92536.84;;;20.17;93.14
10958;BME280;5531;42.570;23.676;2023-06-22T04:29:34;92535.91;;;20.23;92.53
10958;BME280;5531;42.570;23.676;2023-06-22T04:32:05;92544.44;;;20.25;92.12
10958;BME280;5531;42.570;23.676;2023-06-22T04:34:34;92531.75;;;20.32;92.73
10958;BME280;5531;42.570;23.676;2023-06-22T04:37:04;92529.91;;;20.32;93.47
10958;BME280;5531;42.570;23.676;2023-06-22T04:39:34;92538.63;;;20.28;92.22
10958;BME280;5531;42.570;23.676;2023-06-22T04:42:06;92527.44;;;20.26;92.32
10958;BME280;5531;42.570;23.676;2023-06-22T04:44:36;92531.19;;;20.30;92.14
10958;BME280;5531;42.570;23.676;2023-06-22T04:47:07;92535.31;;;20.21;91.87
10958;BME280;5531;42.570;23.676;2023-06-22T04:49:37;92531.94;;;20.25;91.48
10958;BME280;5531;42.570;23.676;2023-06-22T04:52:10;92538.47;;;20.35;91.66
10958;BME280;5531;42.570;23.676;2023-06-22T04:54:40;92537.59;;;20.29;90.15
10958;BME280;5531;42.570;23.676;2023-06-22T04:57:16;92535.31;;;20.21;90.22
10958;BME280;5531;42.570;23.676;2023-06-22T04:59:45;92545.56;;;20.12;92.63
10958;BME280;5531;42.570;23.676;2023-06-22T05:02:14;92549.84;;;20.13;94.44
10958;BME280;5531;42.570;23.676;2023-06-22T05:04:43;92542.34;;;20.10;93.63
10958;BME280;5531;42.570;23.676;2023-06-22T05:07:17;92543.69;;;20.12;93.34
10958;BME280;5531;42.570;23.676;2023-06-22T05:09:46;92545.56;;;20.12;92.39
10958;BME280;5531;42.570;23.676;2023-06-22T05:12:17;92544.84;;;20.17;94.34
10958;BME280;5531;42.570;23.676;2023-06-22T05:14:46;92549.69;;;20.20;95.14
10958;BME280;5531;42.570;23.676;2023-06-22T05:17:15;92550.38;;;20.32;96.54
10958;BME280;5531;42.570;23.676;2023-06-22T05:19:45;92549.97;;;20.40;96.55
10958;BME280;5531;42.570;23.676;2023-06-22T05:22:15;92553.59;;;20.51;96.73
10958;BME280;5531;42.570;23.676;2023-06-22T05:24:44;92544.72;;;20.62;94.22
10958;BME280;5531;42.570;23.676;2023-06-22T05:27:13;92552.88;;;20.73;91.51
10958;BME280;5531;42.570;23.676;2023-06-22T05:29:45;92554.63;;;20.84;93.65
10958;BME280;5531;42.570;23.676;2023-06-22T05:32:14;92558.25;;;20.95;93.10
10958;BME280;5531;42.570;23.676;2023-06-22T05:34:44;92565.06;;;21.08;91.53
10958;BME280;5531;42.570;23.676;2023-06-22T05:37:13;92548.34;;;21.12;91.54
10958;BME280;5531;42.570;23.676;2023-06-22T05:39:42;92556.25;;;21.29;91.19
10958;BME280;5531;42.570;23.676;2023-06-22T05:42:11;92562.44;;;21.35;89.20
10958;BME280;5531;42.570;23.676;2023-06-22T05:44:40;92561.75;;;21.45;89.96
10958;BME280;5531;42.570;23.676;2023-06-22T05:47:12;92562.13;;;21.48;87.83
10958;BME280;5531;42.570;23.676;2023-06-22T05:49:41;92561.69;;;21.56;89.73
10958;BME280;5531;42.570;23.676;2023-06-22T05:52:10;92563.59;;;21.61;90.26
10958;BME280;5531;42.570;23.676;2023-06-22T05:54:39;92560.97;;;21.66;89.84
10958;BME280;5531;42.570;23.676;2023-06-22T05:57:08;92572.59;;;21.82;92.22
10958;BME280;5531;42.570;23.676;2023-06-22T05:59:37;92565.22;;;21.89;90.58
10958;BME280;5531;42.570;23.676;2023-06-22T06:02:06;92563.84;;;21.87;90.34
10958;BME280;5531;42.570;23.676;2023-06-22T06:04:38;92569.13;;;21.82;92.60
10958;BME280;5531;42.570;23.676;2023-06-22T06:07:07;92572.91;;;21.86;92.68
10958;BME280;5531;42.570;23.676;2023-06-22T06:09:36;92577.50;;;21.90;92.58
10958;BME280;5531;42.570;23.676;2023-06-22T06:12:06;92590.06;;;21.95;92.07
10958;BME280;5531;42.570;23.676;2023-06-22T06:14:35;92594.31;;;21.91;92.25
10958;BME280;5531;42.570;23.676;2023-06-22T06:17:04;92587.88;;;21.92;91.96
10958;BME280;5531;42.570;23.676;2023-06-22T06:19:33;92582.63;;;21.97;91.36
10958;BME280;5531;42.570;23.676;2023-06-22T06:22:05;92579.63;;;21.93;89.94
10958;BME280;5531;42.570;23.676;2023-06-22T06:24:34;92579.38;;;21.95;88.85
10958;BME280;5531;42.570;23.676;2023-06-22T06:27:03;92572.22;;;21.95;90.52
10958;BME280;5531;42.570;23.676;2023-06-22T06:29:33;92579.84;;;21.87;88.80
10958;BME280;5531;42.570;23.676;2023-06-22T06:32:03;92581.63;;;21.76;91.90
10958;BME280;5531;42.570;23.676;2023-06-22T06:34:32;92578.13;;;21.75;91.00
10958;BME280;5531;42.570;23.676;2023-06-22T06:37:01;92571.00;;;21.81;93.57
10958;BME280;5531;42.570;23.676;2023-06-22T06:39:33;92570.25;;;21.86;91.62
10958;BME280;5531;42.570;23.676;2023-06-22T06:42:02;92573.75;;;21.91;89.58
10958;BME280;5531;42.570;23.676;2023-06-22T06:44:31;92567.16;;;21.99;90.31
10958;BME280;5531;42.570;23.676;2023-06-22T06:47:00;92574.50;;;22.14;90.76
10958;BME280;5531;42.570;23.676;2023-06-22T06:49:30;92568.19;;;22.25;88.23
10958;BME280;5531;42.570;23.676;2023-06-22T06:51:59;92579.28;;;22.39;85.90
10958;BME280;5531;42.570;23.676;2023-06-22T06:54:28;92583.78;;;22.33;85.41
10958;BME280;5531;42.570;23.676;2023-06-22T06:56:59;92576.34;;;22.41;89.97
10958;BME280;5531;42.570;23.676;2023-06-22T06:59:29;92575.69;;;22.56;91.22
10958;BME280;5531;42.570;23.676;2023-06-22T07:01:58;92575.50;;;22.67;87.32
10958;BME280;5531;42.570;23.676;2023-06-22T07:04:27;92578.00;;;22.84;85.56
10958;BME280;5531;42.570;23.676;2023-06-22T07:06:56;92580.16;;;22.87;81.44
10958;BME280;5531;42.570;23.676;2023-06-22T07:09:25;92581.00;;;22.93;83.72
10958;BME280;5531;42.570;23.676;2023-06-22T07:11:54;92583.19;;;23.01;86.02
10958;BME280;5531;42.570;23.676;2023-06-22T07:14:26;92581.91;;;23.09;84.24
10958;BME280;5531;42.570;23.676;2023-06-22T07:16:57;92591.03;;;23.18;85.75
10958;BME280;5531;42.570;23.676;2023-06-22T07:19:26;92588.38;;;23.23;81.00
10958;BME280;5531;42.570;23.676;2023-06-22T07:21:57;92582.78;;;23.25;81.03
10958;BME280;5531;42.570;23.676;2023-06-22T07:24:26;92578.06;;;23.42;84.28
10958;BME280;5531;42.570;23.676;2023-06-22T07:26:55;92588.00;;;23.57;79.96
10958;BME280;5531;42.570;23.676;2023-06-22T07:29:27;92575.94;;;23.55;78.64
10958;BME280;5531;42.570;23.676;2023-06-22T07:31:57;92576.25;;;23.58;77.50
10958;BME280;5531;42.570;23.676;2023-06-22T07:34:26;92577.31;;;23.63;76.16
10958;BME280;5531;42.570;23.676;2023-06-22T07:36:55;92578.16;;;23.73;81.66
10958;BME280;5531;42.570;23.676;2023-06-22T07:39:24;92572.81;;;23.73;78.88
10958;BME280;5531;42.570;23.676;2023-06-22T07:41:54;92556.50;;;23.75;81.20
10958;BME280;5531;42.570;23.676;2023-06-22T07:44:23;92569.13;;;23.90;76.62
10958;BME280;5531;42.570;23.676;2023-06-22T07:46:55;92578.53;;;24.03;75.87
10958;BME280;5531;42.570;23.676;2023-06-22T07:49:24;92559.25;;;24.11;75.51
10958;BME280;5531;42.570;23.676;2023-06-22T07:51:53;92567.28;;;24.16;71.81
10958;BME280;5531;42.570;23.676;2023-06-22T07:54:22;92563.56;;;24.22;75.52
10958;BME280;5531;42.570;23.676;2023-06-22T07:56:51;92575.88;;;24.28;76.83
10958;BME280;5531;42.570;23.676;2023-06-22T07:59:20;92576.41;;;24.36;77.03
10958;BME280;5531;42.570;23.676;2023-06-22T08:01:50;92569.72;;;24.33;74.90
10958;BME280;5531;42.570;23.676;2023-06-22T08:04:21;92576.94;;;24.27;76.90
10958;BME280;5531;42.570;23.676;2023-06-22T08:06:53;92577.22;;;24.15;78.21
10958;BME280;5531;42.570;23.676;2023-06-22T08:09:22;92580.94;;;24.14;77.90
10958;BME280;5531;42.570;23.676;2023-06-22T08:11:51;92586.03;;;24.26;79.18
10958;BME280;5531;42.570;23.676;2023-06-22T08:14:21;92579.09;;;24.30;79.21
10958;BME280;5531;42.570;23.676;2023-06-22T08:16:50;92580.44;;;24.38;79.91
10958;BME280;5531;42.570;23.676;2023-06-22T08:19:22;92569.16;;;24.41;77.41
10958;BME280;5531;42.570;23.676;2023-06-22T08:21:51;92574.56;;;24.46;77.60
10958;BME280;5531;42.570;23.676;2023-06-22T08:24:20;92573.47;;;24.52;78.08
10958;BME280;5531;42.570;23.676;2023-06-22T08:26:51;92575.09;;;24.64;79.31
10958;BME280;5531;42.570;23.676;2023-06-22T08:29:20;92576.16;;;24.73;74.68
10958;BME280;5531;42.570;23.676;2023-06-22T08:31:49;92569.47;;;24.81;74.68
10958;BME280;5531;42.570;23.676;2023-06-22T08:34:21;92568.09;;;24.88;78.71
10958;BME280;5531;42.570;23.676;2023-06-22T08:36:51;92567.84;;;24.95;72.44
10958;BME280;5531;42.570;23.676;2023-06-22T08:39:20;92571.56;;;24.99;74.02
10958;BME280;5531;42.570;23.676;2023-06-22T08:41:49;92575.59;;;24.92;70.62
10958;BME280;5531;42.570;23.676;2023-06-22T08:44:19;92569.72;;;24.89;73.92
10958;BME280;5531;42.570;23.676;2023-06-22T08:46:48;92568.34;;;25.02;72.16
10958;BME280;5531;42.570;23.676;2023-06-22T08:49:17;92563.25;;;25.06;75.25
10958;BME280;5531;42.570;23.676;2023-06-22T08:51:48;92568.34;;;25.07;71.34
10958;BME280;5531;42.570;23.676;2023-06-22T08:54:19;92564.34;;;25.05;71.39
10958;BME280;5531;42.570;23.676;2023-06-22T08:56:48;92562.97;;;25.07;71.86
10958;BME280;5531;42.570;23.676;2023-06-22T08:59:17;92564.00;;;25.22;74.10
10958;BME280;5531;42.570;23.676;2023-06-22T09:01:46;92576.09;;;25.30;71.85
10958;BME280;5531;42.570;23.676;2023-06-22T09:04:16;92576.84;;;25.40;69.64
10958;BME280;5531;42.570;23.676;2023-06-22T09:06:50;92565.81;;;25.47;65.09
10958;BME280;5531;42.570;23.676;2023-06-22T09:09:20;92576.28;;;25.54;66.44
10958;BME280;5531;42.570;23.676;2023-06-22T09:11:50;92575.16;;;25.60;69.49
10958;BME280;5531;42.570;23.676;2023-06-22T09:14:19;92569.50;;;25.61;71.71
10958;BME280;5531;42.570;23.676;2023-06-22T09:16:48;92568.41;;;25.68;68.98
10958;BME280;5531;42.570;23.676;2023-06-22T09:19:17;92572.91;;;25.83;71.34
10958;BME280;5531;42.570;23.676;2023-06-22T09:21:46;92577.22;;;25.78;66.50
10958;BME280;5531;42.570;23.676;2023-06-22T09:24:18;92576.69;;;25.76;65.64
10958;BME280;5531;42.570;23.676;2023-06-22T09:26:47;92570.00;;;25.74;67.83
10958;BME280;5531;42.570;23.676;2023-06-22T09:29:16;92576.97;;;25.75;66.76
10958;BME280;5531;42.570;23.676;2023-06-22T09:31:45;92575.06;;;25.80;66.73
10958;BME280;5531;42.570;23.676;2023-06-22T09:34:14;92573.97;;;25.87;65.79
10958;BME280;5531;42.570;23.676;2023-06-22T09:36:46;92571.06;;;25.73;65.66
10958;BME280;5531;42.570;23.676;2023-06-22T09:39:18;92570.53;;;25.76;66.78
10958;BME280;5531;42.570;23.676;2023-06-22T09:41:47;92571.91;;;25.73;67.01
10958;BME280;5531;42.570;23.676;2023-06-22T09:44:17;92560.59;;;25.76;69.23
10958;BME280;5531;42.570;23.676;2023-06-22T09:46:46;92562.66;;;25.95;69.01
10958;BME280;5531;42.570;23.676;2023-06-22T09:49:15;92568.25;;;26.04;63.97
10958;BME280;5531;42.570;23.676;2023-06-22T09:51:44;92567.72;;;26.02;68.19
10958;BME280;5531;42.570;23.676;2023-06-22T09:54:13;92570.66;;;26.05;62.72
10958;BME280;5531;42.570;23.676;2023-06-22T09:56:44;92566.06;;;26.11;65.26
10958;BME280;5531;42.570;23.676;2023-06-22T09:59:13;92571.38;;;26.21;65.18
10958;BME280;5531;42.570;23.676;2023-06-22T10:01:42;92559.75;;;26.31;66.95
10958;BME280;5531;42.570;23.676;2023-06-22T10:04:11;92574.22;;;26.35;65.29
10958;BME280;5531;42.570;23.676;2023-06-22T10:06:41;92562.31;;;26.46;66.14
10958;BME280;5531;42.570;23.676;2023-06-22T10:09:10;92573.06;;;26.46;66.27
10958;BME280;5531;42.570;23.676;2023-06-22T10:11:39;92564.72;;;26.48;63.25
10958;BME280;5531;42.570;23.676;2023-06-22T10:14:10;92556.03;;;26.56;64.37
10958;BME280;5531;42.570;23.676;2023-06-22T10:16:39;92563.78;;;26.63;64.67
10958;BME280;5531;42.570;23.676;2023-06-22T10:19:08;92561.69;;;26.60;60.23
10958;BME280;5531;42.570;23.676;2023-06-22T10:21:37;92559.88;;;26.50;60.50
10958;BME280;5531;42.570;23.676;2023-06-22T10:24:07;92551.56;;;26.46;65.34
10958;BME280;5531;42.570;23.676;2023-06-22T10:26:36;92557.47;;;26.48;60.93
10958;BME280;5531;42.570;23.676;2023-06-22T10:29:05;92550.94;;;26.55;63.49
10958;BME280;5531;42.570;23.676;2023-06-22T10:31:37;92558.16;;;26.64;62.93
10958;BME280;5531;42.570;23.676;2023-06-22T10:34:06;92557.63;;;26.62;59.62
10958;BME280;5531;42.570;23.676;2023-06-22T10:36:35;92548.97;;;26.70;62.99
10958;BME280;5531;42.570;23.676;2023-06-22T10:39:04;92542.69;;;26.80;59.78
10958;BME280;5531;42.570;23.676;2023-06-22T10:41:33;92545.25;;;26.96;62.41
10958;BME280;5531;42.570;23.676;2023-06-22T10:44:02;92554.34;;;27.00;57.21
10958;BME280;5531;42.570;23.676;2023-06-22T10:46:31;92539.88;;;26.96;59.78
10958;BME280;5531;42.570;23.676;2023-06-22T10:49:03;92543.53;;;27.05;56.38
10958;BME280;5531;42.570;23.676;2023-06-22T10:51:32;92530.69;;;26.97;59.39
10958;BME280;5531;42.570;23.676;2023-06-22T10:54:01;92542.16;;;27.07;60.96
10958;BME280;5531;42.570;23.676;2023-06-22T10:56:30;92538.50;;;27.22;60.46
10958;BME280;5531;42.570;23.676;2023-06-22T10:58:59;92550.56;;;27.30;53.22
10958;BME280;5531;42.570;23.676;2023-06-22T11:01:28;92548.06;;;27.10;52.46
10958;BME280;5531;42.570;23.676;2023-06-22T11:16:45;92537.72;;;27.46;57.41
10958;BME280;5531;42.570;23.676;2023-06-22T11:19:15;92531.25;;;27.47;54.91
10958;BME280;5531;42.570;23.676;2023-06-22T11:21:44;92538.97;;;27.54;56.19
10958;BME280;5531;42.570;23.676;2023-06-22T11:24:13;92539.94;;;27.63;56.02
10958;BME280;5531;42.570;23.676;2023-06-22T11:26:42;92531.56;;;27.65;55.61
10958;BME280;5531;42.570;23.676;2023-06-22T11:29:11;92538.63;;;27.79;53.98
10958;BME280;5531;42.570;23.676;2023-06-22T11:31:40;92541.75;;;27.87;59.01
10958;BME280;5531;42.570;23.676;2023-06-22T11:34:12;92533.19;;;27.85;55.79
10958;BME280;5531;42.570;23.676;2023-06-22T11:36:41;92529.78;;;27.79;54.02
10958;BME280;5531;42.570;23.676;2023-06-22T11:39:11;92530.50;;;27.66;54.79
10958;BME280;5531;42.570;23.676;2023-06-22T11:41:40;92529.69;;;27.41;56.99
10958;BME280;5531;42.570;23.676;2023-06-22T11:44:10;92530.94;;;27.24;59.30
10958;BME280;5531;42.570;23.676;2023-06-22T11:46:39;92537.22;;;27.15;57.06
10958;BME280;5531;42.570;23.676;2023-06-22T11:49:08;92531.91;;;27.10;59.65
10958;BME280;5531;42.570;23.676;2023-06-22T11:51:40;92527.09;;;27.06;57.88
10958;BME280;5531;42.570;23.676;2023-06-22T11:54:09;92529.28;;;27.04;60.29
10958;BME280;5531;42.570;23.676;2023-06-22T11:56:38;92528.44;;;27.09;65.32
10958;BME280;5531;42.570;23.676;2023-06-22T11:59:06;92530.50;;;27.17;59.09
10958;BME280;5531;42.570;23.676;2023-06-22T12:01:35;92528.41;;;27.38;60.52
10958;BME280;5531;42.570;23.676;2023-06-22T12:04:04;92519.03;;;27.55;58.76
10958;BME280;5531;42.570;23.676;2023-06-22T12:19:22;92521.22;;;27.53;56.83
10958;BME280;5531;42.570;23.676;2023-06-22T12:21:51;92521.75;;;27.31;56.87
10958;BME280;5531;42.570;23.676;2023-06-22T12:27:31;92512.16;;;26.95;61.44
10958;BME280;5531;42.570;23.676;2023-06-22T12:33:11;92506.50;;;26.97;62.23
10958;BME280;5531;42.570;23.676;2023-06-22T12:35:43;92518.31;;;27.01;65.06
10958;BME280;5531;42.570;23.676;2023-06-22T12:38:14;92519.03;;;27.06;65.44
10958;BME280;5531;42.570;23.676;2023-06-22T12:40:43;92509.09;;;27.07;60.52
10958;BME280;5531;42.570;23.676;2023-06-22T12:43:13;92522.28;;;27.03;65.35
10958;BME280;5531;42.570;23.676;2023-06-22T12:45:42;92506.72;;;27.00;62.27
10958;BME280;5531;42.570;23.676;2023-06-22T12:48:11;92500.03;;;26.98;64.40
10958;BME280;5531;42.570;23.676;2023-06-22T12:50:42;92506.78;;;27.19;63.96
10958;BME280;5531;42.570;23.676;2023-06-22T12:53:12;92507.34;;;27.16;63.72
10958;BME280;5531;42.570;23.676;2023-06-22T12:55:41;92515.72;;;27.15;66.14
10958;BME280;5531;42.570;23.676;2023-06-22T12:58:10;92512.38;;;27.23;66.07
10958;BME280;5531;42.570;23.676;2023-06-22T13:00:39;92497.34;;;27.22;64.88
10958;BME280;5531;42.570;23.676;2023-06-22T13:03:08;92511.31;;;27.24;63.28
10958;BME280;5531;42.570;23.676;2023-06-22T13:05:37;92509.09;;;27.31;64.78
10958;BME280;5531;42.570;23.676;2023-06-22T13:08:09;92514.19;;;27.33;64.17
10958;BME280;5531;42.570;23.676;2023-06-22T13:10:39;92519.84;;;27.31;61.88
10958;BME280;5531;42.570;23.676;2023-06-22T13:13:08;92518.34;;;27.20;67.35
10958;BME280;5531;42.570;23.676;2023-06-22T13:15:37;92523.84;;;27.10;66.58
10958;BME280;5531;42.570;23.676;2023-06-22T13:18:06;92524.25;;;26.98;67.54
10958;BME280;5531;42.570;23.676;2023-06-22T13:20:35;92522.28;;;26.79;70.00
10958;BME280;5531;42.570;23.676;2023-06-22T13:23:04;92518.03;;;26.73;70.71
10958;BME280;5531;42.570;23.676;2023-06-22T13:25:36;92525.25;;;26.78;68.01
10958;BME280;5531;42.570;23.676;2023-06-22T13:28:05;92517.44;;;26.81;70.55
10958;BME280;5531;42.570;23.676;2023-06-22T13:30:34;92527.00;;;26.93;69.47
10958;BME280;5531;42.570;23.676;2023-06-22T13:33:03;92517.03;;;26.93;68.71
10958;BME280;5531;42.570;23.676;2023-06-22T13:35:32;92508.91;;;26.98;70.86
10958;BME280;5531;42.570;23.676;2023-06-22T13:38:01;92510.63;;;26.89;70.16
10958;BME280;5531;42.570;23.676;2023-06-22T13:40:30;92508.78;;;26.84;70.48
10958;BME280;5531;42.570;23.676;2023-06-22T13:43:02;92515.75;;;26.85;71.41
10958;BME280;5531;42.570;23.676;2023-06-22T13:45:31;92511.84;;;26.73;69.96